Time;durP1;ratioP1;P1;durP2;ratioP2;P2;SDS_P1;SDS_P2;PMS_P1;PMS_P2;Temp;Humidity;BMP_temperature;BMP_pressure;BME280_temperature;BME280_humidity;BME280_pressure;Samples;Min_cycle;Max_cycle;Signal;HPM_P1;HPM_P2
2022/01/11 00:01:02;;;;;;;13.52;8.73;;;5.80;1.00;;;;;;5068353;28;20211;-82
2022/01/11 00:03:31;;;;;;;11.85;7.35;;;5.90;1.00;;;;;;5060475;28;20307;-83
2022/01/11 00:06:06;;;;;;;11.63;6.72;;;5.90;1.00;;;;;;5060871;28;20193;-82
2022/01/11 00:08:36;;;;;;;12.70;7.20;;;5.80;1.00;;;;;;5072096;28;20331;-82
2022/01/11 00:11:06;;;;;;;15.35;8.35;;;6.00;1.00;;;;;;5061935;28;20220;-82
2022/01/11 00:13:36;;;;;;;12.98;7.93;;;5.80;1.00;;;;;;5060427;28;20466;-83
2022/01/11 00:16:05;;;;;;;13.63;7.88;;;5.80;1.00;;;;;;5060601;28;20214;-83
2022/01/11 00:18:34;;;;;;;15.80;9.85;;;5.80;1.00;;;;;;5067166;28;20479;-82
2022/01/11 00:21:03;;;;;;;12.63;8.73;;;5.80;1.00;;;;;;5060621;28;20599;-81
2022/01/11 00:26:18;;;;;;;13.80;7.03;;;5.90;1.00;;;;;;5078675;28;20192;-81
2022/01/11 00:28:46;;;;;;;15.45;8.07;;;5.90;1.00;;;;;;5056258;28;20243;-80
2022/01/11 00:31:14;;;;;;;11.05;7.05;;;5.80;1.00;;;;;;5063914;28;20200;-80
2022/01/11 00:33:46;;;;;;;13.40;8.30;;;6.10;1.00;;;;;;5065841;28;20224;-82
2022/01/11 00:36:14;;;;;;;17.05;8.30;;;5.80;1.00;;;;;;5058312;28;20743;-83
2022/01/11 00:38:43;;;;;;;17.33;7.78;;;5.90;1.00;;;;;;5078666;28;20644;-82
2022/01/11 00:41:13;;;;;;;11.52;7.15;;;6.00;1.00;;;;;;5070702;28;20474;-81
2022/01/11 00:43:44;;;;;;;18.08;8.48;;;5.90;1.00;;;;;;5072611;28;20298;-79
2022/01/11 00:46:14;;;;;;;14.70;7.82;;;5.90;1.00;;;;;;5065748;28;20300;-81
2022/01/11 00:48:42;;;;;;;19.95;9.93;;;5.90;1.00;;;;;;5067833;28;20738;-80
2022/01/11 00:51:11;;;;;;;13.35;8.40;;;5.90;1.00;;;;;;5055415;28;20558;-81
2022/01/11 00:53:40;;;;;;;15.57;9.02;;;5.90;1.00;;;;;;5072051;28;20220;-80
2022/01/11 00:56:08;;;;;;;13.57;7.68;;;5.90;1.00;;;;;;5074140;28;20219;-80
2022/01/11 00:58:36;;;;;;;9.73;8.15;;;5.90;1.00;;;;;;5052109;28;20197;-80
2022/01/11 01:01:06;;;;;;;16.35;8.90;;;5.90;1.00;;;;;;5066467;28;20205;-82
2022/01/11 01:03:35;;;;;;;12.87;9.33;;;5.90;1.00;;;;;;5068196;28;20311;-82
2022/01/11 01:06:03;;;;;;;15.27;8.25;;;5.80;1.00;;;;;;5069940;28;20459;-81
2022/01/11 01:08:31;;;;;;;12.35;7.70;;;5.80;1.00;;;;;;5051902;28;20221;-80
2022/01/11 01:11:00;;;;;;;16.08;9.30;;;5.80;1.00;;;;;;5079782;28;20207;-81
2022/01/11 01:13:29;;;;;;;16.97;9.37;;;5.80;1.00;;;;;;5063549;28;20218;-81
2022/01/11 01:15:58;;;;;;;14.25;8.23;;;5.80;1.00;;;;;;5061100;28;21055;-82
2022/01/11 01:18:31;;;;;;;15.53;8.50;;;5.80;1.00;;;;;;5057017;28;20660;-81
2022/01/11 01:21:00;;;;;;;13.52;9.80;;;5.80;1.00;;;;;;5059103;28;20818;-81
2022/01/11 01:23:28;;;;;;;11.63;7.88;;;5.80;1.00;;;;;;5064043;28;20219;-82
2022/01/11 01:25:57;;;;;;;15.38;7.55;;;5.80;1.00;;;;;;5069534;28;20199;-80
2022/01/11 01:28:26;;;;;;;10.75;6.88;;;5.70;99.90;;;;;;5058713;28;20812;-82
2022/01/11 01:30:55;;;;;;;13.70;7.13;;;5.70;1.00;;;;;;5062977;28;20208;-81
2022/01/11 01:33:23;;;;;;;12.70;7.80;;;5.70;1.00;;;;;;5076230;28;20220;-82
2022/01/11 01:35:59;;;;;;;11.52;7.43;;;5.90;1.00;;;;;;5070157;28;20204;-80
2022/01/11 01:38:27;;;;;;;12.82;8.15;;;5.70;1.00;;;;;;5075979;28;20278;-80
2022/01/11 01:41:01;;;;;;;10.02;6.63;;;5.70;1.00;;;;;;5079276;28;20257;-80
2022/01/11 01:43:29;;;;;;;17.05;8.50;;;5.70;1.00;;;;;;5085129;28;20626;-84
2022/01/11 01:46:00;;;;;;;13.32;7.55;;;5.70;1.00;;;;;;5066540;28;20227;-81
2022/01/11 01:48:29;;;;;;;15.60;8.70;;;5.70;1.00;;;;;;5064555;28;20675;-81
2022/01/11 01:50:59;;;;;;;12.40;8.95;;;5.60;99.90;;;;;;5067480;28;20216;-80
2022/01/11 01:53:27;;;;;;;11.00;8.10;;;5.60;1.00;;;;;;5062521;28;20220;-81
2022/01/11 01:55:56;;;;;;;9.63;7.07;;;5.60;1.00;;;;;;5081121;28;20200;-81
2022/01/11 01:58:25;;;;;;;14.35;9.07;;;5.60;1.00;;;;;;5067143;28;20245;-81
2022/01/11 02:01:01;;;;;;;15.55;9.23;;;5.50;99.90;;;;;;5067500;28;20204;-81
2022/01/11 02:03:36;;;;;;;11.18;8.35;;;5.60;99.90;;;;;;5068371;28;20608;-82
2022/01/11 02:06:07;;;;;;;12.70;7.45;;;5.60;99.90;;;;;;5085308;28;20255;-81
2022/01/11 02:08:36;;;;;;;13.80;7.97;;;5.60;99.90;;;;;;5055283;28;20255;-80
2022/01/11 02:11:05;;;;;;;16.77;9.02;;;5.60;99.90;;;;;;5069527;28;20629;-81
2022/01/11 02:13:33;;;;;;;11.85;8.90;;;5.60;1.00;;;;;;5054464;28;20561;-81
2022/01/11 02:16:03;;;;;;;11.50;7.90;;;5.90;1.00;;;;;;5067899;28;20215;-82
2022/01/11 02:18:32;;;;;;;13.15;7.95;;;5.60;1.00;;;;;;5060376;28;20197;-81
2022/01/11 02:21:01;;;;;;;11.80;7.53;;;5.60;1.00;;;;;;5067429;28;20201;-82
2022/01/11 02:23:30;;;;;;;12.63;8.60;;;5.70;1.00;;;;;;5058234;28;20220;-82
2022/01/11 02:25:59;;;;;;;13.60;8.17;;;5.90;1.00;;;;;;5079164;28;20204;-82
2022/01/11 02:28:29;;;;;;;11.80;7.88;;;5.60;1.00;;;;;;5071921;28;20474;-82
2022/01/11 02:30:59;;;;;;;11.43;7.35;;;5.60;1.00;;;;;;5066524;28;20193;-82
2022/01/11 02:33:35;;;;;;;16.95;8.60;;;5.70;1.00;;;;;;5064800;28;20211;-81
2022/01/11 02:36:07;;;;;;;12.35;7.07;;;5.70;1.00;;;;;;5075171;28;20200;-82
2022/01/11 02:38:36;;;;;;;11.68;7.25;;;5.60;1.00;;;;;;5066784;28;20192;-81
2022/01/11 02:41:05;;;;;;;14.80;9.23;;;5.60;1.00;;;;;;5063216;28;20197;-82
2022/01/11 02:43:33;;;;;;;11.10;7.32;;;5.70;1.00;;;;;;5071636;28;20224;-82
2022/01/11 02:46:01;;;;;;;10.10;7.17;;;5.70;1.00;;;;;;5064162;28;20262;-81
2022/01/11 02:48:30;;;;;;;14.40;8.40;;;5.70;1.00;;;;;;5076537;28;20515;-83
2022/01/11 02:50:59;;;;;;;15.75;7.97;;;5.60;1.00;;;;;;5066302;28;20745;-81
2022/01/11 02:53:28;;;;;;;11.10;7.63;;;5.70;1.00;;;;;;5073681;28;20222;-80
2022/01/11 02:55:57;;;;;;;18.33;8.75;;;6.00;1.00;;;;;;5065687;28;20193;-81
2022/01/11 02:58:25;;;;;;;12.88;7.78;;;5.80;1.00;;;;;;5060620;28;20209;-81
2022/01/11 03:00:53;;;;;;;14.10;7.93;;;5.70;1.00;;;;;;5069720;28;20282;-81
2022/01/11 03:03:22;;;;;;;15.07;8.98;;;5.70;1.00;;;;;;5069226;28;20633;-82
2022/01/11 03:05:53;;;;;;;14.57;7.70;;;5.70;1.00;;;;;;5057335;28;20565;-82
2022/01/11 03:08:22;;;;;;;16.42;8.38;;;5.70;1.00;;;;;;5061566;28;20195;-83
2022/01/11 03:10:53;;;;;;;12.35;7.57;;;5.70;1.00;;;;;;5070734;28;20221;-81
2022/01/11 03:13:21;;;;;;;18.55;8.98;;;5.60;1.00;;;;;;5063415;28;20218;-82
2022/01/11 03:15:50;;;;;;;8.43;7.50;;;5.60;1.00;;;;;;5067723;28;20211;-81
2022/01/11 03:18:19;;;;;;;10.93;6.47;;;5.80;1.00;;;;;;5051221;28;20649;-81
2022/01/11 03:20:49;;;;;;;11.40;6.93;;;5.70;1.00;;;;;;5069619;28;20200;-81
2022/01/11 03:23:18;;;;;;;8.48;7.13;;;5.60;1.00;;;;;;5072481;28;20220;-83
2022/01/11 03:25:47;;;;;;;12.95;7.80;;;5.70;1.00;;;;;;5070136;28;20215;-82
2022/01/11 03:28:17;;;;;;;9.57;6.88;;;5.70;1.00;;;;;;5064340;28;20743;-81
2022/01/11 03:30:46;;;;;;;20.27;9.45;;;5.70;1.00;;;;;;5072802;28;20334;-82
2022/01/11 03:33:14;;;;;;;15.95;8.20;;;5.60;1.00;;;;;;5064703;28;20290;-81
2022/01/11 03:35:43;;;;;;;15.77;7.78;;;5.70;1.00;;;;;;5056590;28;20291;-81
2022/01/11 03:38:13;;;;;;;17.45;7.80;;;5.70;1.00;;;;;;5078941;28;20278;-82
2022/01/11 03:40:43;;;;;;;9.82;8.15;;;5.70;1.00;;;;;;5080401;28;20200;-81
2022/01/11 03:43:11;;;;;;;16.35;8.18;;;5.70;1.00;;;;;;5071944;28;20201;-82
2022/01/11 03:45:41;;;;;;;17.63;8.75;;;5.70;1.00;;;;;;5053182;28;20205;-81
2022/01/11 03:48:13;;;;;;;13.57;8.10;;;5.70;1.00;;;;;;5054548;28;20200;-83
2022/01/11 03:50:43;;;;;;;14.98;7.45;;;5.70;1.00;;;;;;5075190;28;20197;-84
2022/01/11 03:53:15;;;;;;;18.73;8.98;;;5.70;1.00;;;;;;5062808;28;20287;-81
2022/01/11 03:55:51;;;;;;;22.00;10.65;;;5.70;1.00;;;;;;5057942;28;20656;-81
2022/01/11 03:58:20;;;;;;;16.20;8.85;;;5.70;1.00;;;;;;5059250;28;20242;-83
2022/01/11 04:00:50;;;;;;;13.88;8.55;;;5.70;1.00;;;;;;5061916;28;20185;-82
2022/01/11 04:03:19;;;;;;;17.20;8.57;;;5.70;1.00;;;;;;5052404;28;20265;-82
2022/01/11 04:05:47;;;;;;;13.65;7.88;;;5.70;1.00;;;;;;5065462;28;20212;-81
2022/01/11 04:08:20;;;;;;;16.33;8.00;;;5.70;1.00;;;;;;5073647;28;20713;-80
2022/01/11 04:10:48;;;;;;;19.05;9.43;;;5.60;1.00;;;;;;5057581;28;20243;-80
2022/01/11 04:13:17;;;;;;;17.48;9.20;;;5.60;1.00;;;;;;5068205;28;20228;-82
2022/01/11 04:15:45;;;;;;;19.58;8.95;;;5.70;1.00;;;;;;5052692;28;20222;-82
2022/01/11 04:18:15;;;;;;;19.98;8.50;;;5.70;1.00;;;;;;5072104;28;20243;-82
2022/01/11 04:20:43;;;;;;;19.25;8.60;;;6.00;1.00;;;;;;5057641;28;20200;-82
2022/01/11 04:23:13;;;;;;;21.33;9.88;;;6.00;1.00;;;;;;5053745;28;20189;-83
2022/01/11 04:25:41;;;;;;;24.05;9.20;;;6.00;1.00;;;;;;5061524;28;20610;-82
2022/01/11 04:28:09;;;;;;;14.23;8.02;;;5.70;1.00;;;;;;5088020;28;20237;-82
2022/01/11 04:30:38;;;;;;;15.82;7.68;;;5.90;1.00;;;;;;5066405;28;20224;-83
2022/01/11 04:33:06;;;;;;;15.68;7.60;;;5.70;1.00;;;;;;5060173;28;20299;-82
2022/01/11 04:35:36;;;;;;;16.00;8.68;;;5.70;1.00;;;;;;5063057;28;20201;-82
2022/01/11 04:38:04;;;;;;;17.17;8.32;;;5.70;1.00;;;;;;5065054;28;20663;-82
2022/01/11 04:40:33;;;;;;;18.42;8.45;;;5.70;1.00;;;;;;5063805;28;20682;-82
2022/01/11 04:43:01;;;;;;;24.70;9.73;;;5.70;1.00;;;;;;5057529;28;20205;-82
2022/01/11 04:45:29;;;;;;;15.73;8.75;;;5.70;1.00;;;;;;5056222;28;20192;-82
2022/01/11 04:47:58;;;;;;;14.98;8.10;;;6.00;1.00;;;;;;5071649;28;20673;-81
2022/01/11 04:50:27;;;;;;;23.92;11.93;;;5.70;1.00;;;;;;5062002;28;20448;-80
2022/01/11 04:52:57;;;;;;;19.92;9.88;;;5.70;1.00;;;;;;5057207;28;20837;-82
2022/01/11 04:55:26;;;;;;;15.50;10.10;;;5.70;1.00;;;;;;5051373;28;20280;-83
2022/01/11 04:57:54;;;;;;;21.58;9.77;;;5.80;1.00;;;;;;5049405;28;20455;-81
2022/01/11 05:00:25;;;;;;;14.65;8.30;;;5.90;1.00;;;;;;5060263;28;20188;-81
2022/01/11 05:02:56;;;;;;;18.70;8.23;;;5.70;1.00;;;;;;5070043;28;20218;-82
2022/01/11 05:05:26;;;;;;;16.80;7.22;;;5.80;1.00;;;;;;5076569;28;20192;-79
2022/01/11 05:07:56;;;;;;;14.00;8.70;;;5.70;1.00;;;;;;5077216;28;20189;-82
2022/01/11 05:10:24;;;;;;;14.60;7.68;;;5.70;1.00;;;;;;5062844;28;20779;-82
2022/01/11 05:12:53;;;;;;;16.25;8.00;;;5.70;1.00;;;;;;5053955;28;20201;-83
2022/01/11 05:15:23;;;;;;;14.65;7.78;;;6.00;1.00;;;;;;5073872;28;20212;-82
2022/01/11 05:17:51;;;;;;;12.55;6.80;;;5.70;1.00;;;;;;5071544;28;20273;-80
2022/01/11 05:20:20;;;;;;;13.48;7.50;;;5.70;1.00;;;;;;5063371;28;20678;-82
2022/01/11 05:22:49;;;;;;;17.27;7.77;;;5.80;1.00;;;;;;5062511;28;20705;-82
2022/01/11 05:25:20;;;;;;;12.68;7.10;;;5.60;1.00;;;;;;5076530;28;20515;-81
2022/01/11 05:27:49;;;;;;;13.55;7.47;;;5.70;1.00;;;;;;5082200;28;20239;-81
2022/01/11 05:30:17;;;;;;;17.20;7.90;;;5.70;1.00;;;;;;5075324;28;20242;-82
2022/01/11 05:32:45;;;;;;;13.23;6.75;;;5.70;1.00;;;;;;5065339;28;20288;-80
2022/01/11 05:35:14;;;;;;;20.23;7.70;;;5.70;1.00;;;;;;5083512;28;20230;-81
2022/01/11 05:37:44;;;;;;;12.00;7.65;;;5.70;1.00;;;;;;5074289;28;20228;-82
2022/01/11 05:40:14;;;;;;;13.35;7.38;;;5.70;1.00;;;;;;5063952;28;20200;-80
2022/01/11 05:42:45;;;;;;;14.25;8.20;;;5.70;1.00;;;;;;5056931;28;20686;-81
2022/01/11 05:45:14;;;;;;;10.00;6.13;;;5.80;1.00;;;;;;5068584;28;20234;-81
2022/01/11 05:47:42;;;;;;;10.85;7.05;;;5.90;1.00;;;;;;5070390;28;20212;-80
2022/01/11 05:50:12;;;;;;;13.43;5.70;;;5.80;1.00;;;;;;5066274;28;20296;-79
2022/01/11 05:52:42;;;;;;;15.35;7.60;;;5.70;1.00;;;;;;5070129;28;20686;-81
2022/01/11 05:55:12;;;;;;;12.93;7.40;;;5.80;1.00;;;;;;5060872;28;20228;-80
2022/01/11 05:57:41;;;;;;;9.73;7.10;;;5.80;1.00;;;;;;5072558;28;20663;-81
2022/01/11 06:00:15;;;;;;;13.30;7.22;;;5.80;1.00;;;;;;5057954;28;20205;-80
2022/01/11 06:02:47;;;;;;;14.68;8.20;;;5.80;1.00;;;;;;5060528;28;20278;-81
2022/01/11 06:05:17;;;;;;;13.60;8.07;;;5.80;1.00;;;;;;5065745;28;20223;-81
2022/01/11 06:07:46;;;;;;;12.60;8.18;;;5.70;1.00;;;;;;5051278;28;20201;-80
2022/01/11 06:10:15;;;;;;;16.15;7.68;;;5.80;1.00;;;;;;5057538;28;20671;-81
2022/01/11 06:12:44;;;;;;;12.90;6.75;;;5.80;1.00;;;;;;5064399;28;20619;-80
2022/01/11 06:15:14;;;;;;;11.73;7.15;;;5.80;1.00;;;;;;5067787;28;20216;-80
2022/01/11 06:17:42;;;;;;;14.80;6.85;;;5.90;1.00;;;;;;5065170;28;20244;-79
2022/01/11 06:20:11;;;;;;;13.07;8.57;;;5.90;1.00;;;;;;5065039;28;20201;-81
2022/01/11 06:22:39;;;;;;;13.23;7.90;;;5.90;1.00;;;;;;5074673;28;20714;-80
2022/01/11 06:25:09;;;;;;;13.57;7.40;;;5.90;1.00;;;;;;5068522;28;20723;-81
2022/01/11 06:27:39;;;;;;;17.52;9.38;;;5.90;1.00;;;;;;5060445;28;20216;-80
2022/01/11 06:30:16;;;;;;;11.52;7.97;;;5.90;1.00;;;;;;5069174;28;20757;-81
2022/01/11 06:32:45;;;;;;;13.55;8.00;;;5.90;1.00;;;;;;5068927;28;20633;-80
2022/01/11 06:35:15;;;;;;;15.15;8.70;;;5.90;1.00;;;;;;5051460;28;20213;-81
2022/01/11 06:37:43;;;;;;;15.40;8.60;;;6.30;1.00;;;;;;5063609;28;20204;-80
2022/01/11 06:40:13;;;;;;;12.65;8.25;;;5.90;1.00;;;;;;5061913;28;20205;-81
2022/01/11 06:42:41;;;;;;;18.92;8.35;;;6.00;1.00;;;;;;5057451;28;20185;-81
2022/01/11 06:45:11;;;;;;;13.90;7.68;;;6.00;1.00;;;;;;5055365;28;20273;-81
2022/01/11 06:47:41;;;;;;;15.15;7.25;;;6.00;1.00;;;;;;5050314;28;20209;-80
2022/01/11 06:50:11;;;;;;;13.82;7.45;;;6.30;1.00;;;;;;5065973;28;20258;-80
2022/01/11 06:52:39;;;;;;;17.83;9.15;;;6.00;1.00;;;;;;5058547;28;20471;-80
2022/01/11 06:55:09;;;;;;;12.05;7.88;;;6.00;1.00;;;;;;5063209;28;20235;-80
2022/01/11 06:57:37;;;;;;;13.43;8.27;;;6.10;1.00;;;;;;5056537;28;20201;-79
2022/01/11 07:00:08;;;;;;;17.67;8.80;;;6.10;1.00;;;;;;5055554;28;20201;-79
2022/01/11 07:02:36;;;;;;;14.07;8.57;;;6.10;1.00;;;;;;5058914;28;20572;-79
2022/01/11 07:05:08;;;;;;;16.85;7.10;;;6.40;1.00;;;;;;5058600;28;20224;-79
2022/01/11 07:07:36;;;;;;;12.07;7.20;;;6.10;1.00;;;;;;5055425;28;20254;-79
2022/01/11 07:10:06;;;;;;;18.02;8.23;;;6.10;1.00;;;;;;5058108;28;20189;-79
2022/01/11 07:12:34;;;;;;;14.57;8.57;;;6.00;1.00;;;;;;5061290;28;20246;-80
2022/01/11 07:15:02;;;;;;;13.10;7.28;;;6.00;1.00;;;;;;5061106;28;20216;-80
2022/01/11 07:17:30;;;;;;;12.25;7.18;;;6.00;1.00;;;;;;5063932;28;20213;-79
2022/01/11 07:19:59;;;;;;;10.68;7.07;;;6.00;1.00;;;;;;5061609;28;20672;-80
2022/01/11 07:22:28;;;;;;;20.63;8.55;;;6.00;1.00;;;;;;5053101;28;20189;-79
2022/01/11 07:24:56;;;;;;;12.27;7.22;;;6.00;1.00;;;;;;5051680;28;20278;-80
2022/01/11 07:27:25;;;;;;;18.40;9.57;;;6.00;1.00;;;;;;5060932;28;20444;-80
2022/01/11 07:29:53;;;;;;;18.33;9.98;;;5.90;1.00;;;;;;5066905;28;20207;-81
2022/01/11 07:32:21;;;;;;;12.23;6.93;;;6.00;1.00;;;;;;5058320;28;20230;-81
2022/01/11 07:34:49;;;;;;;18.10;8.50;;;6.00;1.00;;;;;;5053297;28;20863;-79
2022/01/11 07:37:17;;;;;;;14.35;7.50;;;6.10;1.00;;;;;;5055391;28;20452;-80
2022/01/11 07:39:47;;;;;;;14.65;8.07;;;6.10;1.00;;;;;;5068909;28;20210;-80
2022/01/11 07:42:15;;;;;;;18.10;8.45;;;6.00;1.00;;;;;;5056536;28;20192;-80
2022/01/11 07:44:45;;;;;;;13.32;8.10;;;6.10;1.00;;;;;;5063087;28;20564;-80
2022/01/11 07:47:13;;;;;;;14.13;7.68;;;6.10;1.00;;;;;;5069763;28;20573;-79
2022/01/11 07:49:41;;;;;;;12.57;7.03;;;6.10;1.00;;;;;;5068783;28;20252;-81
2022/01/11 07:52:09;;;;;;;16.23;8.60;;;6.00;1.00;;;;;;5049697;28;20346;-81
2022/01/11 07:54:38;;;;;;;12.63;8.23;;;6.10;1.00;;;;;;5063766;28;20712;-79
2022/01/11 07:57:07;;;;;;;15.52;7.40;;;6.30;1.00;;;;;;5055283;28;20197;-80
2022/01/11 07:59:36;;;;;;;17.58;8.70;;;6.10;1.00;;;;;;5061712;28;20864;-79
2022/01/11 08:02:22;;;;;;;13.70;7.82;;;6.10;1.00;;;;;;5058912;28;20191;-79
2022/01/11 08:04:51;;;;;;;19.80;9.57;;;6.10;1.00;;;;;;5054039;28;20609;-81
2022/01/11 08:07:20;;;;;;;16.20;8.52;;;6.10;1.00;;;;;;5051023;28;20286;-79
2022/01/11 08:09:48;;;;;;;15.30;7.88;;;6.10;1.00;;;;;;5053846;28;20251;-80
2022/01/11 08:12:18;;;;;;;12.80;7.57;;;6.50;1.00;;;;;;5057577;28;20217;-80
2022/01/11 08:14:48;;;;;;;13.83;8.43;;;6.10;1.00;;;;;;5057111;28;20471;-80
2022/01/11 08:17:17;;;;;;;13.00;7.03;;;6.10;1.00;;;;;;5061050;28;20454;-80
2022/01/11 08:19:46;;;;;;;15.63;8.33;;;6.10;1.00;;;;;;5070284;28;20291;-80
2022/01/11 08:22:15;;;;;;;14.02;8.10;;;6.20;1.00;;;;;;5055218;28;20868;-80
2022/01/11 08:24:44;;;;;;;13.75;6.78;;;6.20;1.00;;;;;;5059881;28;20252;-79
2022/01/11 08:27:14;;;;;;;11.95;7.65;;;6.20;1.00;;;;;;5076512;28;20299;-79
2022/01/11 08:29:44;;;;;;;9.73;5.70;;;6.20;1.00;;;;;;5055224;28;20747;-80
2022/01/11 08:32:12;;;;;;;11.07;6.53;;;6.20;1.00;;;;;;5066558;28;20482;-79
2022/01/11 08:34:40;;;;;;;11.55;7.72;;;6.20;1.00;;;;;;5063960;28;20251;-80
2022/01/11 08:37:09;;;;;;;15.35;9.10;;;6.30;1.00;;;;;;5057924;28;20323;-80
2022/01/11 08:39:38;;;;;;;11.93;7.18;;;6.30;1.00;;;;;;5073104;28;20197;-80
2022/01/11 08:42:08;;;;;;;12.65;8.40;;;6.20;1.00;;;;;;5073355;28;20202;-80
2022/01/11 08:44:36;;;;;;;15.43;7.95;;;6.30;1.00;;;;;;5061829;28;20219;-79
2022/01/11 08:47:06;;;;;;;13.98;7.88;;;6.30;1.00;;;;;;5063139;28;20280;-80
2022/01/11 08:49:35;;;;;;;9.85;6.05;;;6.30;1.00;;;;;;5059294;28;20608;-80
2022/01/11 08:52:04;;;;;;;16.43;7.40;;;6.30;1.00;;;;;;5053495;28;20225;-79
2022/01/11 08:54:33;;;;;;;10.02;7.13;;;6.30;1.00;;;;;;5061773;28;20548;-79
2022/01/11 08:57:01;;;;;;;16.33;7.03;;;6.40;1.00;;;;;;5054803;28;20207;-79
2022/01/11 08:59:30;;;;;;;12.60;7.35;;;6.30;1.00;;;;;;5058473;28;20207;-80
2022/01/11 09:02:03;;;;;;;10.45;6.70;;;6.40;1.00;;;;;;5053408;28;20205;-80
2022/01/11 09:04:33;;;;;;;13.57;7.53;;;6.30;1.00;;;;;;5068997;28;20237;-79
2022/01/11 09:07:01;;;;;;;11.00;6.90;;;6.40;1.00;;;;;;5070377;28;20235;-80
2022/01/11 09:09:31;;;;;;;10.40;5.77;;;6.30;1.00;;;;;;5074469;28;20460;-79
2022/01/11 09:12:03;;;;;;;12.43;6.80;;;6.40;1.00;;;;;;5070865;28;20451;-79
2022/01/11 09:14:31;;;;;;;14.10;7.33;;;6.40;1.00;;;;;;5053246;28;20217;-79
2022/01/11 09:17:02;;;;;;;13.03;6.77;;;6.40;1.00;;;;;;5067670;28;20455;-80
2022/01/11 09:19:31;;;;;;;13.63;6.93;;;6.40;1.00;;;;;;5051730;28;21001;-80
2022/01/11 09:22:01;;;;;;;10.37;6.00;;;6.50;1.00;;;;;;5060193;28;20291;-79
2022/01/11 09:24:35;;;;;;;11.70;6.67;;;6.50;1.00;;;;;;5059154;28;20478;-80
2022/01/11 09:27:05;;;;;;;11.20;6.80;;;6.50;1.00;;;;;;5077069;28;20455;-80
2022/01/11 09:29:36;;;;;;;10.17;6.13;;;6.50;1.00;;;;;;5062095;28;21073;-81
2022/01/11 09:32:07;;;;;;;10.27;5.90;;;6.50;1.00;;;;;;5056737;28;20491;-80
2022/01/11 09:34:37;;;;;;;10.83;6.97;;;6.50;1.00;;;;;;5059164;28;20817;-80
2022/01/11 09:37:07;;;;;;;11.93;7.33;;;6.50;1.00;;;;;;5070631;28;20459;-80
2022/01/11 09:39:36;;;;;;;18.57;7.10;;;6.60;1.00;;;;;;5072448;28;20458;-80
2022/01/11 09:42:06;;;;;;;10.73;6.77;;;6.60;1.00;;;;;;5067714;28;20455;-80
2022/01/11 09:44:38;;;;;;;11.83;8.00;;;6.60;1.00;;;;;;5066911;28;20499;-80
2022/01/11 09:47:08;;;;;;;14.70;7.37;;;6.60;1.00;;;;;;5060351;28;20451;-79
2022/01/11 09:49:37;;;;;;;11.25;7.40;;;6.60;1.00;;;;;;5059982;28;20482;-79
2022/01/11 09:52:07;;;;;;;12.53;6.53;;;6.60;1.00;;;;;;5066588;28;20755;-79
2022/01/11 09:54:37;;;;;;;9.60;6.60;;;6.60;1.00;;;;;;5053026;28;20512;-79
2022/01/11 09:57:06;;;;;;;11.40;6.60;;;6.70;1.00;;;;;;5063937;28;20533;-79
2022/01/11 09:59:35;;;;;;;11.40;8.10;;;6.70;1.00;;;;;;5052745;28;21525;-80
2022/01/11 10:02:04;;;;;;;11.77;7.40;;;6.70;1.00;;;;;;5069014;28;20454;-78
2022/01/11 10:04:35;;;;;;;13.43;8.03;;;6.70;1.00;;;;;;5057773;28;20482;-80
2022/01/11 10:07:07;;;;;;;17.43;8.20;;;6.70;1.00;;;;;;5058779;28;20455;-79
2022/01/11 10:09:44;;;;;;;15.23;7.00;;;6.90;1.00;;;;;;5062263;28;20451;-79
2022/01/11 10:12:14;;;;;;;11.60;7.40;;;6.70;1.00;;;;;;5071366;28;20461;-80
2022/01/11 10:14:49;;;;;;;13.60;7.67;;;6.80;1.00;;;;;;5058284;28;20492;-80
2022/01/11 10:17:20;;;;;;;10.70;6.90;;;6.80;1.00;;;;;;5067146;28;20520;-79
2022/01/11 10:19:51;;;;;;;10.37;6.67;;;6.80;1.00;;;;;;5050604;28;20462;-80
2022/01/11 10:22:23;;;;;;;9.60;6.20;;;6.90;1.00;;;;;;5054527;28;20454;-82
2022/01/11 10:24:53;;;;;;;11.00;6.72;;;6.90;1.00;;;;;;5050423;28;20578;-79
2022/01/11 10:27:25;;;;;;;10.87;6.77;;;6.90;1.00;;;;;;5070494;28;20203;-78
2022/01/11 10:29:56;;;;;;;13.83;6.80;;;6.90;1.00;;;;;;5058783;28;20471;-79
2022/01/11 10:32:27;;;;;;;8.68;6.63;;;6.90;1.00;;;;;;5059512;28;20831;-80
2022/01/11 10:34:57;;;;;;;11.33;7.77;;;7.00;1.00;;;;;;5062949;28;20217;-81
2022/01/11 10:37:35;;;;;;;8.77;5.63;;;7.00;1.00;;;;;;5062537;28;20489;-79
2022/01/11 10:40:11;;;;;;;9.27;6.07;;;7.00;1.00;;;;;;5059690;28;20889;-80
2022/01/11 10:42:45;;;;;;;10.27;6.15;;;7.00;1.00;;;;;;5068760;28;20451;-79
2022/01/11 10:45:14;;;;;;;9.67;6.60;;;7.10;1.00;;;;;;5069537;28;20249;-79
2022/01/11 10:47:47;;;;;;;13.17;7.00;;;7.10;1.00;;;;;;5058005;28;20462;-80
2022/01/11 10:50:19;;;;;;;12.87;7.17;;;7.10;1.00;;;;;;5067530;28;20458;-80
2022/01/11 10:52:48;;;;;;;10.50;5.70;;;7.20;1.00;;;;;;5064296;28;20455;-79
2022/01/11 10:55:18;;;;;;;13.17;7.17;;;7.20;1.00;;;;;;5058929;28;20468;-80
2022/01/11 10:57:51;;;;;;;9.60;5.97;;;7.20;1.00;;;;;;5062244;28;20550;-79
2022/01/11 11:00:26;;;;;;;9.90;6.53;;;7.30;1.00;;;;;;5061457;28;20470;-80
2022/01/11 11:03:00;;;;;;;10.85;6.75;;;7.30;1.00;;;;;;5061320;28;20517;-81
2022/01/11 11:05:32;;;;;;;9.90;6.40;;;7.30;1.00;;;;;;5070457;28;20201;-79
2022/01/11 11:08:08;;;;;;;8.97;5.80;;;7.30;99.90;;;;;;5064140;28;20470;-81
2022/01/11 11:10:45;;;;;;;8.60;6.70;;;7.20;1.00;;;;;;5062251;28;20446;-80
2022/01/11 11:13:24;;;;;;;12.70;6.10;;;7.30;99.90;;;;;;5068582;28;20478;-79
2022/01/11 11:15:54;;;;;;;9.87;6.10;;;7.30;99.90;;;;;;5055160;28;20484;-80
2022/01/11 11:18:27;;;;;;;10.40;6.30;;;7.40;99.90;;;;;;5053847;28;20951;-80
2022/01/11 11:20:56;;;;;;;11.03;6.37;;;7.40;99.90;;;;;;5063450;28;20454;-80
2022/01/11 11:23:26;;;;;;;9.30;5.30;;;7.50;99.90;;;;;;5052699;28;20543;-78
2022/01/11 11:25:58;;;;;;;8.70;5.40;;;7.50;99.90;;;;;;5060988;28;20885;-80
2022/01/11 11:28:26;;;;;;;9.57;5.20;;;7.60;99.90;;;;;;5049402;28;20467;-79
2022/01/11 11:30:55;;;;;;;6.60;4.20;;;7.60;99.90;;;;;;5053272;28;20466;-79
2022/01/11 11:33:25;;;;;;;12.47;5.87;;;7.70;99.90;;;;;;5056568;28;20475;-80
2022/01/11 11:35:53;;;;;;;7.30;4.63;;;7.70;99.90;;;;;;5053994;28;20460;-80
2022/01/11 11:38:26;;;;;;;8.37;6.37;;;7.70;99.90;;;;;;5054667;28;20454;-80
2022/01/11 11:40:56;;;;;;;8.77;5.03;;;7.70;99.90;;;;;;5072251;28;20462;-80
2022/01/11 11:43:25;;;;;;;7.67;4.73;;;7.80;99.90;;;;;;5066328;28;20475;-80
2022/01/11 11:45:54;;;;;;;8.10;4.97;;;7.70;99.90;;;;;;5049770;28;20524;-80
2022/01/11 11:48:24;;;;;;;8.60;4.47;;;7.70;99.90;;;;;;5054210;28;20452;-79
2022/01/11 11:50:58;;;;;;;6.70;4.17;;;7.70;99.90;;;;;;5062013;28;20458;-80
2022/01/11 11:53:29;;;;;;;4.57;3.87;;;7.70;99.90;;;;;;5060048;28;20476;-80
2022/01/11 11:58:55;;;;;;;4.40;2.00;;;7.70;99.90;;;;;;5129424;27;21432;-80
2022/01/11 12:01:44;;;;;;;2.27;1.93;;;7.70;99.90;;;;;;5124690;27;20471;-79
2022/01/11 12:04:15;;;;;;;4.23;2.00;;;7.70;99.90;;;;;;5125802;27;20478;-79
2022/01/11 12:06:45;;;;;;;1.60;1.20;;;7.70;99.90;;;;;;5120719;27;20442;-79
2022/01/11 12:09:16;;;;;;;2.23;1.50;;;7.70;99.90;;;;;;5122500;27;20948;-80
2022/01/11 12:11:49;;;;;;;3.27;2.57;;;7.60;99.90;;;;;;5119656;27;20959;-80
2022/01/11 12:14:39;;;;;;;2.93;2.00;;;7.60;99.90;;;;;;5124530;27;20479;-79
2022/01/11 12:17:24;;;;;;;1.93;1.40;;;7.60;99.90;;;;;;5121161;27;20483;-79
2022/01/11 12:19:54;;;;;;;1.80;1.60;;;7.60;99.90;;;;;;5109173;27;20460;-80
2022/01/11 12:22:30;;;;;;;3.00;1.93;;;7.60;99.90;;;;;;5117632;28;20456;-79
2022/01/11 12:25:03;;;;;;;4.47;1.83;;;7.60;99.90;;;;;;5116673;27;20863;-80
2022/01/11 12:27:51;;;;;;;2.90;1.40;;;7.60;99.90;;;;;;5120865;28;20547;-78
2022/01/11 12:30:20;;;;;;;2.70;1.70;;;7.60;99.90;;;;;;5116166;27;20449;-79
2022/01/11 12:33:08;;;;;;;4.30;2.03;;;7.60;99.90;;;;;;5127899;27;20463;-80
2022/01/11 12:35:52;;;;;;;3.00;2.00;;;7.60;99.90;;;;;;5124607;27;20459;-79
2022/01/11 12:38:21;;;;;;;3.30;1.87;;;7.70;99.90;;;;;;5112312;28;20508;-80
2022/01/11 12:40:50;;;;;;;4.17;2.50;;;7.70;99.90;;;;;;5120380;27;20456;-81
2022/01/11 12:43:36;;;;;;;3.90;2.60;;;7.70;99.90;;;;;;5125833;27;20817;-80
2022/01/11 12:46:10;;;;;;;5.00;2.03;;;7.70;99.90;;;;;;5141422;27;21000;-82
2022/01/11 12:48:57;;;;;;;3.77;3.30;;;8.00;99.90;;;;;;5123629;27;20813;-79
2022/01/11 12:51:41;;;;;;;5.93;2.57;;;7.80;99.90;;;;;;5112610;27;20475;-79
2022/01/11 12:54:18;;;;;;;4.63;2.63;;;7.80;99.90;;;;;;5123800;27;20478;-80
2022/01/11 12:56:48;;;;;;;2.70;1.83;;;7.80;99.90;;;;;;5125484;27;20474;-79
2022/01/11 12:59:17;;;;;;;3.50;1.97;;;7.90;99.90;;;;;;5125699;27;21002;-80
2022/01/11 13:01:47;;;;;;;4.20;1.70;;;8.00;99.90;;;;;;5120499;28;20834;-80
2022/01/11 13:04:16;;;;;;;2.13;1.43;;;8.00;99.90;;;;;;5123265;27;20477;-80
2022/01/11 13:06:44;;;;;;;1.40;1.20;;;8.10;99.90;;;;;;5122488;27;20455;-80
2022/01/11 13:09:13;;;;;;;1.30;1.10;;;8.20;99.90;;;;;;5116841;27;20458;-81
2022/01/11 13:11:47;;;;;;;2.87;1.60;;;8.20;99.90;;;;;;5106305;27;20831;-80
2022/01/11 13:14:29;;;;;;;1.70;1.60;;;8.20;99.90;;;;;;5109989;27;20894;-79
2022/01/11 13:17:02;;;;;;;1.73;1.60;;;8.40;99.90;;;;;;5113503;27;20827;-80
2022/01/11 13:19:32;;;;;;;3.70;2.00;;;8.20;99.90;;;;;;5114832;27;20444;-80